Airfield :
LOGIN :

Register | Disclaimer

   EN    FR    IT 

 










Legend :    VFR   Marginal VFR   IFR   Intensive IFR   Very Intensive IFR
Visi :
Ceiling :
>= 8 km
>= 3000ft
5 to 8 km
1000 to 3000 ft
1500m to 5 km
500 to 1000 ft
800 to 1500m
200 to 500 ft
< 800m
< 200 ft
Symbols :   Thunderstorms  Fog  Heavy snow  Heavy precipitations  Wind > 20 kt
SIGMETs :     Misc.  Thunderstorms  Icing  Turbulence  Mountain Waves  Volcanic Ashes






- Airport Elevation : 184 ft
- IATA code : BRU


EBBR - Bruxelles

CURRENT METAR :
  • 112120Z 20008KT 9999 FEW040 05/03 Q1004 NOSIG

EXPIRED METARs :
  • 112050Z 20008KT CAVOK 05/03 Q1004 NOSIG
  • 112020Z 20008KT CAVOK 05/03 Q1004 NOSIG
  • 111950Z 20008KT CAVOK 05/03 Q1004 NOSIG
  • 111920Z 20009KT CAVOK 05/04 Q1004 NOSIG
  • 111850Z 20007KT 9999 SCT011 05/04 Q1004 NOSIG
  • 111820Z 19006KT 9999 FEW012 05/04 Q1004 NOSIG

TAF COR TAF EBBR
Valid from the 11 at 18:00 until the 13 at 00:00 UTC


111727Z 1118/1224 21008KT 9999 FEW035
TEMPO 1122/1203 22015G25KT 4000 SHRA BKN008 SCT015CB
PROB30
TEMPO 1203/1212 4500 -DZRA SCT008 BKN012
PROB30
TEMPO 1216/1224 17015G25KT 3500 RADZ BKN008



MET'MAP, your aeronautical weather chart ! - Copyright ORBIFLY December 2007 - Disclaimer

ORBIFLY MET'MAP TEAM :

Programming & Development : Alexandra Zaïnal
Concept & original design : Baudouin d'Aumeries
Assistance for programming : Marc-Olivier Méhu
Technical & hardware support : Manuel Goepfert

Contact : metmap@orbifly.com




SOURCES & CREDITS :

   NOAA